WetterOnline ( http://www.wetteronline.de )

Wetter aktuell Senftenberg

Aktuelles Wetter: Hoyerswerda (116m)

6-stündlich | Neueste Meldungen
Ortszeit Temperatur Wetter
Mi, 19.09. 8:00 15.4° C leicht bewölkt
Mi, 19.09. 2:00 18.9° C wolkenlos
Di, 18.09. 20:00 23.2° C wolkenlos
Di, 18.09. 14:00 28.7° C leicht bewölkt
Di, 18.09. 8:00 14.9° C leicht bewölkt
Di, 18.09. 2:00 13.7° C -
Mo, 17.09. 20:00 18.4° C -
Mo, 17.09. 14:00 26.2° C leicht bewölkt
Ortszeit Temperatur Wetter
Mi, 19.09. 12:30 24.1° C bedeckt
Mi, 19.09. 12:20 24.1° C bedeckt
Mi, 19.09. 12:10 24.6° C wolkig
Mi, 19.09. 12:00 23.6° C wolkig
Mi, 19.09. 11:50 23.6° C wolkig
Mi, 19.09. 11:40 23.3° C bedeckt
Mi, 19.09. 11:30 23.5° C bedeckt
Mi, 19.09. 11:00 23.1° C bedeckt
Mi, 19.09. 10:30 21.4° C wolkig
Mi, 19.09. 10:00 21.1° C wolkig
Mi, 19.09. 9:30 20.5° C leicht bewölkt
Ortszeit Relative Feuchte Sichtweite
Mi, 19.09. 8:00 85% 16 km
Mi, 19.09. 2:00 70% 25 km
Di, 18.09. 20:00 49% 35 km
Di, 18.09. 14:00 38% 28 km
Di, 18.09. 8:00 71% 30 km
Di, 18.09. 2:00 78% 29 km
Mo, 17.09. 20:00 54% 60 km
Mo, 17.09. 14:00 29% 35 km
Ortszeit Relative Feuchte Sichtweite
Mi, 19.09. 12:30 46% 30 km
Mi, 19.09. 12:20 46% -
Mi, 19.09. 12:10 46% -
Mi, 19.09. 12:00 49% 30 km
Mi, 19.09. 11:50 49% -
Mi, 19.09. 11:40 49% -
Mi, 19.09. 11:30 47% 29 km
Mi, 19.09. 11:00 49% 29 km
Mi, 19.09. 10:30 52% 30 km
Mi, 19.09. 10:00 52% 30 km
Mi, 19.09. 9:30 54% 30 km
Ortszeit Niederschlagsmenge Niederschlagsart
Mi, 19.09. 8:00 0.0 l/m2 in 12 Std. -
Mi, 19.09. 2:00 0.0 l/m2 in 6 Std. -
Di, 18.09. 20:00 0.0 l/m2 in 12 Std. -
Di, 18.09. 14:00 0.0 l/m2 in 6 Std. -
Di, 18.09. 8:00 0.0 l/m2 in 12 Std. -
Di, 18.09. 2:00 0.0 l/m2 in 6 Std. -
Mo, 17.09. 20:00 0.0 l/m2 in 12 Std. -
Mo, 17.09. 14:00 0.0 l/m2 in 6 Std. -
Ortszeit Niederschlagsmenge Niederschlagsart
Mi, 19.09. 12:30 0.0 l/m2 in 1 Std. -
Mi, 19.09. 12:20 keine Meldung -
Mi, 19.09. 12:10 keine Meldung -
Mi, 19.09. 12:00 0.0 l/m2 in 1 Std. -
Mi, 19.09. 11:50 keine Meldung -
Mi, 19.09. 11:40 keine Meldung -
Mi, 19.09. 11:30 0.0 l/m2 in 1 Std. -
Mi, 19.09. 11:00 0.0 l/m2 in 1 Std. -
Mi, 19.09. 10:30 0.0 l/m2 in 1 Std. -
Mi, 19.09. 10:00 0.0 l/m2 in 1 Std. -
Mi, 19.09. 9:30 0.0 l/m2 in 1 Std. -
Ortszeit Stärke Spitze Richtung
km/h Bft. km/h Grad Sektor
Mi, 19.09. 8:00 7 2 14 250° W
Mi, 19.09. 2:00 9 2 17 170° S
Di, 18.09. 20:00 7 2 26 150° SO
Di, 18.09. 14:00 11 2 26 200° S
Di, 18.09. 8:00 7 2 14 130° SO
Di, 18.09. 2:00 7 2 14 130° SO
Mo, 17.09. 20:00 7 2 20 110° O
Mo, 17.09. 14:00 7 2 22 240° SW
Ortszeit Stärke Spitze Richtung
km/h Bft. km/h Grad Sektor
Mi, 19.09. 12:30 9 2 19 340° N
Mi, 19.09. 12:20 9 2 - 340° N
Mi, 19.09. 12:10 11 2 - 310° NW
Mi, 19.09. 12:00 7 2 18 330° NW
Mi, 19.09. 11:50 7 2 - 330° NW
Mi, 19.09. 11:40 7 2 - 300° NW
Mi, 19.09. 11:30 7 2 19 340° N
Mi, 19.09. 11:00 9 2 15 260° W
Mi, 19.09. 10:30 6 1 13 300° NW
Mi, 19.09. 10:00 7 2 14 300° NW
Mi, 19.09. 9:30 9 2 13 290° W
Ortszeit Untergrenze Bedeckung Gattung
total tief tief mittel hoch
Mi, 19.09. 8:00 8400 m 6/8 0/8 - - -
Mi, 19.09. 2:00 - 0/8 0/8 - - -
Di, 18.09. 20:00 - 0/8 0/8 - - -
Di, 18.09. 14:00 9000 m 5/8 0/8 - - -
Di, 18.09. 8:00 10500 m 5/8 0/8 - - -
Di, 18.09. 2:00 - - - - - -
Mo, 17.09. 20:00 - - - - - -
Mo, 17.09. 14:00 8400 m 8/8 0/8 - - -
Ortszeit Bedeckungsgrad in Achtel und Wolkenuntergrenze
Mi, 19.09. 12:30 8(6600m) 8(7200m)
Mi, 19.09. 12:20 8(6600m) 8(7200m)
Mi, 19.09. 12:10 1(2700m) 8(6300m) 8(6900m)
Mi, 19.09. 12:00 2(2700m) 8(5700m) 8(6900m)
Mi, 19.09. 11:50 2(2700m) 8(5700m) 8(6900m)
Mi, 19.09. 11:40 8(5700m)
Mi, 19.09. 11:30 8(5400m) 8(7200m)
Mi, 19.09. 11:00 8(5700m) 8(7200m)
Mi, 19.09. 10:30 4(6300m) 6(9000m) 7(10500m)
Mi, 19.09. 10:00 3(6300m) 6(8700m) 8(9000m)
Mi, 19.09. 9:30 4(10500m) 6(9000m)
Ortszeit Luftdruck NN (hPa) Tendenz (hPa in 3 Std.)
Mi, 19.09. 8:00 1018 + 1,8
Mi, 19.09. 2:00 1015 + 0,1
Di, 18.09. 20:00 1014 0,0
Di, 18.09. 14:00 1016 - 1,5
Di, 18.09. 8:00 1018 - 0,2
Di, 18.09. 2:00 1019 - 0,4
Mo, 17.09. 20:00 1019 0,0
Mo, 17.09. 14:00 1020 - 0,9
Ortszeit Luftdruck NN (hPa) Tendenz (hPa in 3 Std.)
Mi, 19.09. 12:30 1019 + 0,5
Mi, 19.09. 12:20 1019 keine Meldung
Mi, 19.09. 12:10 1019 keine Meldung
Mi, 19.09. 12:00 1019 + 0,9
Mi, 19.09. 11:50 1019 keine Meldung
Mi, 19.09. 11:40 1019 keine Meldung
Mi, 19.09. 11:30 1019 + 1,3
Mi, 19.09. 11:00 1019 + 1,5
Mi, 19.09. 10:30 1019 + 1,8
Mi, 19.09. 10:00 1019 + 2,0
Mi, 19.09. 9:30 1019 + 1,9
Ortszeit Schneehöhe (cm)
Mi, 19.09. 8:00 -
Mi, 19.09. 2:00 -
Di, 18.09. 20:00 -
Di, 18.09. 14:00 -
Di, 18.09. 8:00 -
Di, 18.09. 2:00 -
Mo, 17.09. 20:00 -
Mo, 17.09. 14:00 -
Ortszeit Schneehöhe (cm)
Mi, 19.09. 12:30 -
Mi, 19.09. 12:20 -
Mi, 19.09. 12:10 -
Mi, 19.09. 12:00 -
Mi, 19.09. 11:50 -
Mi, 19.09. 11:40 -
Mi, 19.09. 11:30 -
Mi, 19.09. 11:00 -
Mi, 19.09. 10:30 -
Mi, 19.09. 10:00 -
Mi, 19.09. 9:30 -
Link zu dieser Seite / Seite empfehlen

Das Wetter in ...